Terminal Aerodrome Forecast
Issued by NWS

Home | Current Version | Previous Version | Text Only | Print | Product List | Glossary On
Versions: 1 2 3 4 5 6 7 8 9 10 11 12
000
FTUS42 KTBW 142326
TAFLAL
TAF
KLAL 142326Z 1500/1524 VRB05KT P6SM SCT150
     FM150800 VRB03KT 6SM BR SCT025 BKN100
     FM151300 18006KT P6SM BKN100
     FM151600 20007KT P6SM SCT050
     FM152000 25007KT P6SM SCT050=

USA.gov is the U.S. government's official web portal to all federal, state and local government web resources and services.